Time;durP1;ratioP1;P1;durP2;ratioP2;P2;SDS_P1;SDS_P2;PMS_P1;PMS_P2;Temp;Humidity;BMP_temperature;BMP_pressure;BME280_temperature;BME280_humidity;BME280_pressure;Samples;Min_cycle;Max_cycle;Signal;HPM_P1;HPM_P2
2021/12/09 00:01:46;;;;;;;42.70;24.90;;;8.70;91.20;;;;;;5081684;28;20025;-57
2021/12/09 00:04:14;;;;;;;41.78;22.88;;;8.70;91.20;;;;;;5080594;28;20024;-58
2021/12/09 00:06:42;;;;;;;45.50;24.05;;;8.70;91.20;;;;;;5075272;28;20158;-57
2021/12/09 00:09:12;;;;;;;42.63;22.17;;;8.70;91.20;;;;;;5075559;28;20027;-58
2021/12/09 00:11:46;;;;;;;42.58;23.00;;;8.60;91.20;;;;;;5074844;28;20109;-56
2021/12/09 00:14:16;;;;;;;46.40;23.70;;;8.70;91.30;;;;;;5074589;28;20067;-58
2021/12/09 00:16:54;;;;;;;46.38;24.23;;;8.60;91.40;;;;;;5080839;28;20031;-58
2021/12/09 00:19:28;;;;;;;44.90;23.85;;;8.60;91.40;;;;;;5077764;28;20017;-58
2021/12/09 00:22:17;;;;;;;46.53;24.48;;;8.60;91.40;;;;;;5094665;28;20170;-58
2021/12/09 00:24:45;;;;;;;44.65;23.15;;;8.60;91.40;;;;;;5095559;28;20344;-59
2021/12/09 00:27:11;;;;;;;48.42;25.08;;;8.60;91.40;;;;;;5095111;28;20036;-59
2021/12/09 00:29:37;;;;;;;42.47;23.48;;;8.60;91.50;;;;;;5088339;28;20034;-57
2021/12/09 00:32:03;;;;;;;40.35;22.75;;;8.60;91.60;;;;;;5074577;28;20388;-58
2021/12/09 00:34:34;;;;;;;44.25;22.92;;;8.60;91.50;;;;;;5084502;28;20116;-59
2021/12/09 00:37:17;;;;;;;40.42;22.65;;;8.60;91.60;;;;;;5085059;28;20024;-58
2021/12/09 00:39:45;;;;;;;42.08;23.70;;;8.60;91.60;;;;;;5076810;28;20056;-57
2021/12/09 00:42:11;;;;;;;41.38;22.88;;;8.60;91.60;;;;;;5095139;28;20451;-57
2021/12/09 00:44:37;;;;;;;41.72;21.98;;;8.60;91.60;;;;;;5094124;28;20028;-59
2021/12/09 00:47:04;;;;;;;44.28;24.52;;;8.60;91.50;;;;;;5090236;28;20028;-58
2021/12/09 00:49:30;;;;;;;40.40;21.83;;;8.60;91.50;;;;;;5092790;28;20028;-59
2021/12/09 00:51:59;;;;;;;43.78;23.30;;;8.70;91.60;;;;;;5095023;28;20089;-58
2021/12/09 00:54:49;;;;;;;42.55;22.90;;;8.70;91.60;;;;;;5092480;28;20024;-59
2021/12/09 00:57:15;;;;;;;41.53;23.55;;;8.70;91.60;;;;;;5087860;28;20035;-55
2021/12/09 00:59:41;;;;;;;36.58;21.08;;;8.70;91.50;;;;;;5074110;28;20031;-59
2021/12/09 01:02:09;;;;;;;39.00;20.88;;;8.70;91.50;;;;;;5074014;28;20024;-58
2021/12/09 01:04:36;;;;;;;39.00;22.35;;;8.80;91.50;;;;;;5085893;28;20036;-59
2021/12/09 01:07:03;;;;;;;36.75;22.17;;;8.80;91.40;;;;;;5093046;28;20498;-58
2021/12/09 01:09:32;;;;;;;40.05;22.83;;;8.80;91.30;;;;;;5094659;28;20495;-57
2021/12/09 01:11:58;;;;;;;40.50;22.67;;;8.80;91.30;;;;;;5074518;28;20051;-57
2021/12/09 01:14:24;;;;;;;42.60;22.63;;;8.70;91.40;;;;;;5082258;28;20029;-58
2021/12/09 01:16:49;;;;;;;44.25;23.00;;;8.70;91.40;;;;;;5084365;28;20103;-58
2021/12/09 01:19:16;;;;;;;37.78;22.83;;;8.70;91.50;;;;;;5074651;28;20059;-58
2021/12/09 01:21:42;;;;;;;39.15;21.60;;;8.70;91.40;;;;;;5073727;28;20036;-58
2021/12/09 01:24:07;;;;;;;41.67;23.52;;;8.70;91.40;;;;;;5074048;28;20028;-57
2021/12/09 01:26:34;;;;;;;41.17;21.20;;;8.70;91.40;;;;;;5074710;28;20649;-59
2021/12/09 01:29:10;;;;;;;37.70;22.33;;;8.70;91.40;;;;;;5085902;28;20020;-58
2021/12/09 01:31:38;;;;;;;37.90;20.42;;;8.70;91.40;;;;;;5075652;28;20042;-58
2021/12/09 01:34:04;;;;;;;38.53;23.05;;;8.70;91.40;;;;;;5075893;28;20051;-58
2021/12/09 01:36:34;;;;;;;36.05;20.30;;;8.70;91.40;;;;;;5093700;28;20020;-59
2021/12/09 01:39:02;;;;;;;38.08;21.00;;;8.70;91.40;;;;;;5092877;28;20028;-58
2021/12/09 01:41:28;;;;;;;37.13;19.83;;;8.70;91.40;;;;;;5094117;28;20031;-58
2021/12/09 01:43:54;;;;;;;35.13;20.63;;;8.70;91.30;;;;;;5092334;28;20032;-56
2021/12/09 01:46:20;;;;;;;35.60;20.13;;;8.70;91.30;;;;;;5082230;28;20422;-58
2021/12/09 01:48:48;;;;;;;37.75;21.15;;;8.70;91.40;;;;;;5093864;28;20055;-58
2021/12/09 01:51:14;;;;;;;34.67;19.90;;;8.70;91.40;;;;;;5092484;28;20020;-56
2021/12/09 01:53:40;;;;;;;38.90;20.90;;;8.70;91.40;;;;;;5082427;28;20055;-57
2021/12/09 01:56:09;;;;;;;36.15;22.13;;;8.70;91.40;;;;;;5079321;28;20107;-58
2021/12/09 01:58:36;;;;;;;35.65;20.20;;;8.70;91.70;;;;;;5086443;28;20093;-57
2021/12/09 02:01:02;;;;;;;38.17;20.58;;;8.70;91.50;;;;;;5089834;28;20082;-57
2021/12/09 02:03:28;;;;;;;33.70;19.95;;;8.70;91.60;;;;;;5073376;28;20096;-58
2021/12/09 02:05:54;;;;;;;35.67;19.88;;;8.70;91.60;;;;;;5074575;28;20113;-58
2021/12/09 02:08:20;;;;;;;34.40;21.08;;;8.70;91.50;;;;;;5092351;28;20071;-59
2021/12/09 02:10:47;;;;;;;34.47;20.30;;;8.60;91.50;;;;;;5095338;28;20052;-58
2021/12/09 02:13:14;;;;;;;33.75;19.25;;;8.60;91.60;;;;;;5096651;28;20496;-58
2021/12/09 02:15:40;;;;;;;33.90;19.23;;;8.60;91.60;;;;;;5097559;28;20356;-57
2021/12/09 02:18:08;;;;;;;33.17;19.02;;;8.60;91.60;;;;;;5095349;28;20020;-57
2021/12/09 02:20:35;;;;;;;29.08;18.10;;;8.60;91.70;;;;;;5077426;28;20029;-58
2021/12/09 02:23:07;;;;;;;32.40;18.60;;;8.60;91.60;;;;;;5077525;28;20376;-56
2021/12/09 02:25:34;;;;;;;36.83;19.15;;;8.60;91.70;;;;;;5093711;28;20024;-57
2021/12/09 02:27:59;;;;;;;31.50;20.05;;;8.60;91.70;;;;;;5096398;28;20050;-58
2021/12/09 02:30:25;;;;;;;34.63;19.45;;;8.60;91.80;;;;;;5091279;28;20028;-58
2021/12/09 02:32:51;;;;;;;33.80;18.70;;;8.60;91.90;;;;;;5097556;28;20028;-59
2021/12/09 02:35:17;;;;;;;32.30;19.67;;;8.50;91.90;;;;;;5093588;28;20406;-56
2021/12/09 02:37:44;;;;;;;36.67;20.38;;;8.50;91.80;;;;;;5077208;28;20018;-58
2021/12/09 02:40:11;;;;;;;35.45;17.75;;;8.60;91.90;;;;;;5077223;28;20025;-57
2021/12/09 02:42:37;;;;;;;34.75;19.88;;;8.60;92.10;;;;;;5094626;28;20069;-59
2021/12/09 02:45:07;;;;;;;34.65;19.88;;;8.50;91.80;;;;;;5097195;28;20116;-58
2021/12/09 02:47:33;;;;;;;32.05;17.60;;;8.50;91.90;;;;;;5089368;28;20039;-59
2021/12/09 02:50:00;;;;;;;31.17;19.85;;;8.50;92.00;;;;;;5097088;28;20078;-57
2021/12/09 02:52:26;;;;;;;34.15;19.27;;;8.50;91.90;;;;;;5090702;28;20094;-58
2021/12/09 02:54:52;;;;;;;34.55;19.42;;;8.50;92.00;;;;;;5096297;28;20032;-58
2021/12/09 02:57:17;;;;;;;34.35;18.63;;;8.50;91.90;;;;;;5095575;28;20024;-58
2021/12/09 02:59:44;;;;;;;32.53;17.80;;;8.50;92.00;;;;;;5096805;28;20073;-57
2021/12/09 03:02:11;;;;;;;31.25;17.35;;;8.50;91.90;;;;;;5088712;28;20388;-57
2021/12/09 03:04:55;;;;;;;31.77;18.58;;;8.50;91.90;;;;;;5096193;28;20024;-55
2021/12/09 03:07:29;;;;;;;32.28;18.08;;;8.50;91.80;;;;;;5094551;28;20468;-59
2021/12/09 03:10:20;;;;;;;29.85;17.35;;;8.50;91.90;;;;;;5087461;28;20041;-58
2021/12/09 03:12:48;;;;;;;27.90;17.67;;;8.50;91.80;;;;;;5076587;28;20021;-59
2021/12/09 03:15:14;;;;;;;29.98;17.80;;;8.50;91.80;;;;;;5083021;28;20452;-58
2021/12/09 03:17:43;;;;;;;33.42;18.05;;;8.50;91.80;;;;;;5096737;28;20020;-57
2021/12/09 03:20:11;;;;;;;27.85;16.75;;;8.50;91.80;;;;;;5093373;28;20028;-58
2021/12/09 03:22:38;;;;;;;25.92;16.67;;;8.50;91.80;;;;;;5076158;28;20123;-59
2021/12/09 03:25:07;;;;;;;31.08;17.35;;;8.50;91.80;;;;;;5091509;28;20019;-58
2021/12/09 03:27:33;;;;;;;24.02;15.63;;;8.50;91.80;;;;;;5082009;28;20115;-57
2021/12/09 03:29:59;;;;;;;25.98;16.42;;;8.50;91.80;;;;;;5075896;28;20108;-58
2021/12/09 03:32:25;;;;;;;26.02;14.90;;;8.50;91.80;;;;;;5078997;28;20040;-58
2021/12/09 03:34:51;;;;;;;27.63;16.70;;;8.50;91.80;;;;;;5096179;28;20052;-58
2021/12/09 03:37:20;;;;;;;27.13;16.13;;;8.50;91.90;;;;;;5091243;28;20082;-57
2021/12/09 03:39:46;;;;;;;27.30;15.50;;;8.50;91.80;;;;;;5096164;28;20020;-59
2021/12/09 03:42:15;;;;;;;25.17;15.57;;;8.50;91.90;;;;;;5095931;28;20024;-59
2021/12/09 03:44:42;;;;;;;25.90;16.23;;;8.50;91.90;;;;;;5080530;28;20104;-58
2021/12/09 03:47:10;;;;;;;22.73;15.52;;;8.50;91.80;;;;;;5090125;28;20077;-59
2021/12/09 03:49:37;;;;;;;24.92;15.25;;;8.50;91.80;;;;;;5086907;28;20032;-58
2021/12/09 03:52:04;;;;;;;20.95;14.40;;;8.60;91.80;;;;;;5090257;28;20077;-58
2021/12/09 03:54:29;;;;;;;24.77;15.07;;;8.60;91.80;;;;;;5076547;28;20024;-59
2021/12/09 03:56:55;;;;;;;26.08;15.00;;;8.60;91.70;;;;;;5075447;28;20143;-57
2021/12/09 03:59:21;;;;;;;19.45;13.43;;;8.50;91.70;;;;;;5075449;28;20020;-56
2021/12/09 04:01:47;;;;;;;23.42;14.73;;;8.50;91.80;;;;;;5088522;28;20035;-58
2021/12/09 04:04:14;;;;;;;21.15;14.18;;;8.60;91.80;;;;;;5076144;28;20029;-58
2021/12/09 04:06:40;;;;;;;22.25;14.00;;;8.50;91.80;;;;;;5088822;28;20020;-56
2021/12/09 04:09:10;;;;;;;21.40;14.18;;;8.60;91.80;;;;;;5089524;28;20052;-58
2021/12/09 04:11:36;;;;;;;19.50;14.50;;;8.60;91.70;;;;;;5095404;28;20031;-58
2021/12/09 04:14:02;;;;;;;20.45;14.25;;;8.60;91.60;;;;;;5095147;28;20028;-58
2021/12/09 04:16:29;;;;;;;20.60;14.18;;;8.60;91.60;;;;;;5095218;28;20032;-59
2021/12/09 04:18:55;;;;;;;19.33;13.00;;;8.70;91.60;;;;;;5078156;28;20027;-58
2021/12/09 04:21:20;;;;;;;20.27;13.32;;;8.70;91.50;;;;;;5090978;28;20072;-58
2021/12/09 04:23:46;;;;;;;20.50;13.82;;;8.70;91.50;;;;;;5081438;28;20051;-58
2021/12/09 04:26:12;;;;;;;19.35;13.60;;;8.70;91.40;;;;;;5089737;28;20032;-58
2021/12/09 04:28:39;;;;;;;21.48;13.23;;;8.70;91.30;;;;;;5095230;28;20039;-58
2021/12/09 04:31:06;;;;;;;19.88;13.70;;;8.70;91.30;;;;;;5093378;28;20090;-57
2021/12/09 04:33:32;;;;;;;18.35;12.55;;;8.70;91.20;;;;;;5094523;28;20035;-59
2021/12/09 04:35:59;;;;;;;18.23;12.48;;;8.70;91.20;;;;;;5091259;28;20024;-57
2021/12/09 04:38:25;;;;;;;17.77;12.18;;;8.70;91.10;;;;;;5093427;28;20055;-58
2021/12/09 04:40:51;;;;;;;17.48;12.63;;;8.70;91.10;;;;;;5094205;28;20016;-58
2021/12/09 04:43:17;;;;;;;17.92;12.65;;;8.70;91.10;;;;;;5094787;28;20034;-56
2021/12/09 04:45:43;;;;;;;16.88;12.68;;;8.70;91.10;;;;;;5094604;28;20516;-58
2021/12/09 04:48:09;;;;;;;19.20;12.55;;;8.70;91.00;;;;;;5094773;28;20499;-58
2021/12/09 04:50:37;;;;;;;19.33;13.38;;;8.70;91.20;;;;;;5093225;28;20028;-58
2021/12/09 04:53:04;;;;;;;18.35;12.68;;;8.70;90.90;;;;;;5083921;28;20046;-58
2021/12/09 04:55:30;;;;;;;16.15;11.82;;;8.70;90.80;;;;;;5094597;28;20533;-57
2021/12/09 04:57:56;;;;;;;18.83;12.95;;;8.70;90.90;;;;;;5093573;28;20028;-58
2021/12/09 05:00:25;;;;;;;17.40;12.18;;;8.70;91.00;;;;;;5094410;28;20039;-56
2021/12/09 05:03:06;;;;;;;19.90;12.75;;;8.70;90.80;;;;;;5094546;28;20352;-59
2021/12/09 05:05:44;;;;;;;20.05;12.25;;;8.70;90.80;;;;;;5090684;28;20444;-56
2021/12/09 05:08:15;;;;;;;18.42;13.07;;;8.80;90.80;;;;;;5081619;28;20181;-57
2021/12/09 05:10:55;;;;;;;18.83;12.50;;;8.80;90.80;;;;;;5072564;28;20107;-58
2021/12/09 05:13:23;;;;;;;19.70;13.38;;;8.80;90.80;;;;;;5077780;28;20032;-57
2021/12/09 05:15:49;;;;;;;20.63;13.65;;;8.70;90.80;;;;;;5093259;28;20081;-57
2021/12/09 05:18:16;;;;;;;17.75;12.23;;;8.80;90.80;;;;;;5093542;28;20030;-57
2021/12/09 05:20:43;;;;;;;20.70;13.55;;;8.80;90.80;;;;;;5092123;28;20035;-59
2021/12/09 05:23:09;;;;;;;19.85;12.82;;;8.80;90.70;;;;;;5083719;28;20117;-57
2021/12/09 05:25:35;;;;;;;18.90;12.90;;;8.80;90.60;;;;;;5081705;28;20483;-58
2021/12/09 05:28:01;;;;;;;19.30;13.23;;;8.90;90.60;;;;;;5093938;28;20035;-58
2021/12/09 05:30:39;;;;;;;18.48;12.85;;;8.80;90.50;;;;;;5092903;28;20087;-58
2021/12/09 05:33:06;;;;;;;18.73;13.00;;;8.90;90.60;;;;;;5078854;28;20043;-59
2021/12/09 05:35:33;;;;;;;18.25;12.38;;;8.90;90.50;;;;;;5093865;28;20046;-57
2021/12/09 05:37:59;;;;;;;20.73;12.32;;;8.90;90.40;;;;;;5092934;28;20024;-58
2021/12/09 05:40:25;;;;;;;18.60;13.43;;;8.90;90.40;;;;;;5091429;28;20024;-58
2021/12/09 05:42:50;;;;;;;17.98;12.23;;;8.90;90.30;;;;;;5085102;28;20031;-58
2021/12/09 05:45:16;;;;;;;19.23;12.63;;;8.90;90.30;;;;;;5081100;28;20030;-57
2021/12/09 05:47:42;;;;;;;17.55;11.90;;;8.90;90.30;;;;;;5086061;28;20467;-57
2021/12/09 05:50:08;;;;;;;19.35;11.93;;;8.90;90.40;;;;;;5092446;28;20028;-58
2021/12/09 05:52:34;;;;;;;18.27;12.32;;;8.90;90.40;;;;;;5090381;28;20036;-56
2021/12/09 05:55:00;;;;;;;16.73;12.00;;;8.90;90.30;;;;;;5090980;28;20076;-58
2021/12/09 05:57:26;;;;;;;17.02;12.25;;;8.90;90.20;;;;;;5090057;28;20107;-57
2021/12/09 05:59:54;;;;;;;15.98;11.52;;;8.90;90.30;;;;;;5077728;28;20096;-58
2021/12/09 06:02:20;;;;;;;20.42;11.98;;;8.90;90.10;;;;;;5077297;28;20044;-58
2021/12/09 06:04:46;;;;;;;17.50;13.02;;;8.90;90.20;;;;;;5087500;28;20650;-59
2021/12/09 06:07:13;;;;;;;18.92;12.60;;;8.90;90.10;;;;;;5080449;28;20024;-59
2021/12/09 06:09:39;;;;;;;19.40;12.93;;;8.90;90.10;;;;;;5083905;28;20037;-59
2021/12/09 06:12:06;;;;;;;19.85;12.43;;;8.90;90.10;;;;;;5075368;28;20574;-59
2021/12/09 06:14:32;;;;;;;19.02;12.57;;;8.90;90.00;;;;;;5085320;28;20024;-59
2021/12/09 06:16:58;;;;;;;17.92;12.43;;;8.90;90.00;;;;;;5074886;28;20044;-59
2021/12/09 06:19:23;;;;;;;16.83;11.93;;;8.90;90.00;;;;;;5073375;28;20479;-59
2021/12/09 06:21:49;;;;;;;17.38;11.98;;;8.90;90.00;;;;;;5080716;28;20040;-58
2021/12/09 06:24:18;;;;;;;16.05;11.93;;;8.90;90.00;;;;;;5079415;28;20039;-59
2021/12/09 06:26:45;;;;;;;16.88;11.88;;;8.90;90.10;;;;;;5076597;28;20044;-58
2021/12/09 06:29:11;;;;;;;17.15;12.30;;;9.00;90.00;;;;;;5069405;28;20028;-60
2021/12/09 06:31:37;;;;;;;19.13;12.10;;;9.00;90.00;;;;;;5069416;28;20028;-59
2021/12/09 06:34:02;;;;;;;15.75;11.23;;;9.00;90.00;;;;;;5081193;28;20168;-60
2021/12/09 06:36:28;;;;;;;16.02;11.38;;;9.00;90.00;;;;;;5077701;28;20028;-58
2021/12/09 06:38:54;;;;;;;16.02;11.40;;;9.00;89.90;;;;;;5077608;28;20020;-57
2021/12/09 06:41:21;;;;;;;15.57;11.25;;;9.00;90.00;;;;;;5083262;28;20118;-59
2021/12/09 06:43:47;;;;;;;15.32;11.13;;;9.00;90.00;;;;;;5080476;28;20548;-59
2021/12/09 06:46:14;;;;;;;17.58;12.27;;;9.00;90.00;;;;;;5075680;28;20029;-59
2021/12/09 06:48:40;;;;;;;16.45;11.02;;;9.10;89.80;;;;;;5078891;28;20035;-58
2021/12/09 06:51:07;;;;;;;17.08;10.85;;;9.10;89.80;;;;;;5074243;28;20035;-58
2021/12/09 06:53:34;;;;;;;14.48;11.15;;;9.10;89.70;;;;;;5080509;28;20028;-58
2021/12/09 06:56:00;;;;;;;16.75;10.38;;;9.10;89.70;;;;;;5068648;28;20052;-58
2021/12/09 06:58:26;;;;;;;17.13;11.27;;;9.10;89.70;;;;;;5075437;28;20028;-57
2021/12/09 07:00:54;;;;;;;14.07;9.95;;;9.10;89.50;;;;;;5073684;28;20043;-57
2021/12/09 07:03:21;;;;;;;15.63;10.98;;;9.10;89.40;;;;;;5073034;28;20154;-59
2021/12/09 07:05:49;;;;;;;15.43;10.90;;;9.10;89.40;;;;;;5068996;28;20032;-59
2021/12/09 07:08:15;;;;;;;16.70;10.02;;;9.10;89.20;;;;;;5075996;28;20028;-59
2021/12/09 07:10:41;;;;;;;17.88;11.50;;;9.10;89.40;;;;;;5072297;28;20040;-58
2021/12/09 07:13:07;;;;;;;14.15;9.82;;;9.10;89.30;;;;;;5070257;28;20039;-58
2021/12/09 07:15:33;;;;;;;14.63;10.32;;;9.10;89.30;;;;;;5077452;28;20920;-59
2021/12/09 07:17:59;;;;;;;15.07;10.90;;;9.20;89.10;;;;;;5075486;28;20507;-59
2021/12/09 07:20:27;;;;;;;15.68;10.75;;;9.20;89.10;;;;;;5074361;28;20036;-58
2021/12/09 07:22:54;;;;;;;15.07;10.45;;;9.20;89.00;;;;;;5074058;28;20043;-61
2021/12/09 07:25:22;;;;;;;16.02;10.48;;;9.20;88.90;;;;;;5069736;28;20037;-59
2021/12/09 07:27:48;;;;;;;16.88;11.38;;;9.20;88.80;;;;;;5070233;28;20032;-59
2021/12/09 07:30:17;;;;;;;18.33;11.00;;;9.20;89.30;;;;;;5069856;28;20035;-58
2021/12/09 07:32:43;;;;;;;16.83;11.10;;;9.30;88.90;;;;;;5078235;28;20439;-59
2021/12/09 07:35:10;;;;;;;16.75;10.75;;;9.30;88.90;;;;;;5072805;28;20118;-58
2021/12/09 07:37:37;;;;;;;16.00;10.80;;;9.30;88.90;;;;;;5075923;28;20567;-58
2021/12/09 07:40:06;;;;;;;19.00;11.82;;;9.30;88.80;;;;;;5074252;28;20652;-59
2021/12/09 07:42:32;;;;;;;15.73;11.02;;;9.30;88.60;;;;;;5072390;28;20036;-57
2021/12/09 07:44:57;;;;;;;15.15;10.10;;;9.40;88.70;;;;;;5070930;28;20606;-59
2021/12/09 07:47:23;;;;;;;18.02;11.27;;;9.40;88.50;;;;;;5072905;28;20036;-57
2021/12/09 07:49:49;;;;;;;16.05;11.02;;;9.40;88.40;;;;;;5069285;28;20030;-56
2021/12/09 07:52:15;;;;;;;15.77;11.38;;;9.40;88.30;;;;;;5071765;28;20479;-60
2021/12/09 07:54:40;;;;;;;17.38;11.68;;;9.40;88.20;;;;;;5071118;28;20040;-56
2021/12/09 07:57:06;;;;;;;15.25;10.75;;;9.40;88.00;;;;;;5071150;28;20083;-58
2021/12/09 07:59:32;;;;;;;16.05;10.20;;;9.40;87.80;;;;;;5065449;28;20070;-58
2021/12/09 08:01:57;;;;;;;17.25;11.88;;;9.40;87.90;;;;;;5067928;28;20554;-58
2021/12/09 08:04:23;;;;;;;18.00;11.82;;;9.40;88.00;;;;;;5064929;28;20393;-58
2021/12/09 08:06:49;;;;;;;15.70;10.77;;;9.50;88.00;;;;;;5059728;28;20086;-58
2021/12/09 08:09:15;;;;;;;15.00;11.05;;;9.50;87.90;;;;;;5065737;28;20479;-58
2021/12/09 08:11:42;;;;;;;15.32;11.20;;;9.40;88.00;;;;;;5066803;28;20042;-59
2021/12/09 08:14:11;;;;;;;14.55;10.82;;;9.40;88.00;;;;;;5067181;28;20537;-59
2021/12/09 08:16:39;;;;;;;16.63;10.70;;;9.40;88.00;;;;;;5072693;28;20439;-57
2021/12/09 08:19:13;;;;;;;13.98;10.65;;;9.40;88.20;;;;;;5072271;28;20040;-59
2021/12/09 08:21:40;;;;;;;16.40;11.48;;;9.40;88.10;;;;;;5061348;28;20101;-59
2021/12/09 08:24:08;;;;;;;15.80;10.73;;;9.40;88.20;;;;;;5065109;28;20028;-59
2021/12/09 08:26:35;;;;;;;15.95;11.18;;;9.40;87.80;;;;;;5065465;28;20444;-59
2021/12/09 08:29:02;;;;;;;13.70;10.93;;;9.40;87.90;;;;;;5057410;28;20025;-59
2021/12/09 08:31:29;;;;;;;15.18;11.50;;;9.40;87.90;;;;;;5061368;28;20039;-59
2021/12/09 08:33:56;;;;;;;15.25;11.57;;;9.40;88.00;;;;;;5068553;28;20036;-59
2021/12/09 08:36:22;;;;;;;16.75;11.23;;;9.40;88.10;;;;;;5059843;28;20033;-58
2021/12/09 08:38:47;;;;;;;16.63;11.50;;;9.40;88.00;;;;;;5070655;28;20168;-58
2021/12/09 08:41:18;;;;;;;15.68;10.45;;;9.40;88.00;;;;;;5067270;28;20028;-59
2021/12/09 08:43:44;;;;;;;16.58;10.98;;;9.40;88.10;;;;;;5068093;28;20484;-60
2021/12/09 08:46:10;;;;;;;15.50;10.82;;;9.40;88.10;;;;;;5051854;28;20020;-59
2021/12/09 08:48:35;;;;;;;14.80;10.55;;;9.40;88.30;;;;;;5065953;28;20062;-59
2021/12/09 08:51:01;;;;;;;18.08;11.85;;;9.40;88.20;;;;;;5061507;28;20357;-58
2021/12/09 08:53:27;;;;;;;17.30;11.75;;;9.40;88.30;;;;;;5065567;28;20118;-58
2021/12/09 08:55:53;;;;;;;15.77;10.98;;;9.40;88.10;;;;;;5062262;28;20562;-59
2021/12/09 08:58:21;;;;;;;16.35;10.70;;;9.40;88.30;;;;;;5069053;28;20610;-60
2021/12/09 09:00:49;;;;;;;15.82;11.02;;;9.30;88.20;;;;;;5065200;28;20536;-59
2021/12/09 09:03:15;;;;;;;15.93;11.00;;;9.40;88.30;;;;;;5062378;28;20433;-59
2021/12/09 09:05:42;;;;;;;18.58;11.32;;;9.30;88.20;;;;;;5064437;28;20028;-59
2021/12/09 09:08:07;;;;;;;17.42;11.48;;;9.30;88.20;;;;;;5060809;28;20115;-59
2021/12/09 09:10:41;;;;;;;15.10;11.05;;;9.30;88.30;;;;;;5061430;28;20028;-60
2021/12/09 09:13:07;;;;;;;18.52;11.70;;;9.30;88.40;;;;;;5060294;28;20064;-60
2021/12/09 09:15:33;;;;;;;17.42;11.63;;;9.30;88.40;;;;;;5057961;28;20131;-59
2021/12/09 09:18:00;;;;;;;15.82;10.82;;;9.30;88.30;;;;;;5054231;28;20169;-59
2021/12/09 09:20:29;;;;;;;17.15;10.80;;;9.30;88.30;;;;;;5061183;28;20016;-60
2021/12/09 09:22:55;;;;;;;15.45;11.45;;;9.30;88.30;;;;;;5063754;28;20048;-58
2021/12/09 09:25:29;;;;;;;16.50;10.82;;;9.30;88.50;;;;;;5061846;28;20043;-59
2021/12/09 09:27:59;;;;;;;17.05;11.40;;;9.30;88.50;;;;;;5061821;28;20174;-60
2021/12/09 09:30:27;;;;;;;18.27;11.15;;;9.30;88.60;;;;;;5062633;28;20346;-60
2021/12/09 09:32:53;;;;;;;15.98;11.07;;;9.30;88.60;;;;;;5063322;28;20087;-59
2021/12/09 09:35:19;;;;;;;17.60;10.93;;;9.30;88.60;;;;;;5056151;28;20049;-60
2021/12/09 09:37:46;;;;;;;15.70;10.82;;;9.20;88.60;;;;;;5059591;28;20021;-60
2021/12/09 09:40:15;;;;;;;17.60;11.40;;;9.20;88.50;;;;;;5063758;28;20395;-59
2021/12/09 09:45:11;;;;;;;17.50;11.23;;;9.20;88.60;;;;;;5062544;28;20039;-60
2021/12/09 09:47:37;;;;;;;16.23;11.68;;;9.20;88.80;;;;;;5067950;28;20037;-60
2021/12/09 09:50:05;;;;;;;15.18;11.32;;;9.20;88.80;;;;;;5060380;28;20036;-59
2021/12/09 09:52:31;;;;;;;18.05;11.25;;;9.20;88.90;;;;;;5066401;28;20139;-59
2021/12/09 09:54:59;;;;;;;15.40;10.77;;;9.20;88.90;;;;;;5058521;28;20033;-59
2021/12/09 09:57:25;;;;;;;16.35;11.43;;;9.20;88.90;;;;;;5062881;28;20031;-60
2021/12/09 09:59:51;;;;;;;16.73;11.45;;;9.20;88.80;;;;;;5060801;28;20415;-58
2021/12/09 10:02:17;;;;;;;18.20;10.98;;;9.20;89.50;;;;;;5069871;28;20024;-59
2021/12/09 10:04:46;;;;;;;18.02;11.40;;;9.20;88.90;;;;;;5063153;28;20058;-58
2021/12/09 10:07:17;;;;;;;18.15;11.70;;;9.20;89.00;;;;;;5072302;28;20032;-59
2021/12/09 10:09:44;;;;;;;18.55;11.70;;;9.20;88.90;;;;;;5070367;28;20544;-59
2021/12/09 10:12:10;;;;;;;19.33;12.50;;;9.20;89.00;;;;;;5063326;28;20067;-58
2021/12/09 10:14:36;;;;;;;19.55;11.65;;;9.20;89.00;;;;;;5066918;28;20102;-59
2021/12/09 10:17:11;;;;;;;18.20;12.18;;;9.20;89.00;;;;;;5067996;28;20043;-58
2021/12/09 10:19:52;;;;;;;21.00;12.40;;;9.20;89.00;;;;;;5066016;28;20225;-59
2021/12/09 10:22:22;;;;;;;16.50;11.60;;;9.30;89.10;;;;;;5066458;28;20036;-59
2021/12/09 10:24:50;;;;;;;16.67;11.75;;;9.20;89.10;;;;;;5071201;28;20028;-58
2021/12/09 10:27:28;;;;;;;19.05;13.00;;;9.20;89.10;;;;;;5072785;28;20101;-60
2021/12/09 10:30:03;;;;;;;19.92;12.38;;;9.20;89.10;;;;;;5070301;28;20543;-59
2021/12/09 10:32:33;;;;;;;17.85;12.57;;;9.20;89.00;;;;;;5068389;28;20025;-59
2021/12/09 10:35:08;;;;;;;17.25;10.88;;;9.30;89.00;;;;;;5070776;28;20035;-59
2021/12/09 10:37:36;;;;;;;20.38;11.77;;;9.30;89.00;;;;;;5072728;28;20029;-59
2021/12/09 10:40:02;;;;;;;18.33;11.43;;;9.30;89.00;;;;;;5075850;28;20586;-59
2021/12/09 10:42:31;;;;;;;17.40;10.45;;;9.30;88.90;;;;;;5075973;28;20085;-59
2021/12/09 10:44:59;;;;;;;17.08;11.55;;;9.30;88.70;;;;;;5069896;28;20032;-59
2021/12/09 10:50:18;;;;;;;;;;;9.30;88.80;;;;;;5073120;28;20058;-58
2021/12/09 10:52:50;;;;;;;16.92;10.25;;;9.20;88.70;;;;;;5064362;28;19945;-60
2021/12/09 10:55:36;;;;;;;16.02;10.48;;;9.30;89.20;;;;;;5067582;28;20039;-59
2021/12/09 10:58:10;;;;;;;16.17;10.30;;;9.30;89.00;;;;;;5066375;28;20032;-59
2021/12/09 11:00:52;;;;;;;15.05;10.00;;;9.30;89.10;;;;;;5068411;28;20029;-60
2021/12/09 11:03:34;;;;;;;15.13;10.00;;;9.30;89.20;;;;;;5070434;28;20028;-59
2021/12/09 11:06:12;;;;;;;14.38;9.73;;;9.30;89.00;;;;;;5064238;28;20035;-58
2021/12/09 11:08:51;;;;;;;18.40;10.68;;;9.30;89.20;;;;;;5070425;28;20028;-59
2021/12/09 11:11:34;;;;;;;15.43;10.40;;;9.30;89.00;;;;;;5067575;28;20024;-59
2021/12/09 11:14:09;;;;;;;13.82;9.93;;;9.30;89.00;;;;;;5072375;28;20233;-59
2021/12/09 11:16:41;;;;;;;13.77;9.77;;;9.30;89.20;;;;;;5070858;28;20056;-59
2021/12/09 11:19:25;;;;;;;13.38;9.00;;;9.30;89.20;;;;;;5068956;28;20074;-59
2021/12/09 11:21:58;;;;;;;12.35;8.98;;;9.30;89.10;;;;;;5071022;28;20040;-59
2021/12/09 11:24:34;;;;;;;13.15;8.82;;;9.30;89.20;;;;;;5076689;28;20035;-59
2021/12/09 11:27:09;;;;;;;13.55;9.10;;;9.30;89.20;;;;;;5067605;28;20484;-59
2021/12/09 11:29:45;;;;;;;13.65;9.10;;;9.30;89.20;;;;;;5070607;28;20031;-60
2021/12/09 11:32:19;;;;;;;13.10;9.43;;;9.30;89.20;;;;;;5067217;28;20020;-59
2021/12/09 11:34:54;;;;;;;12.30;9.15;;;9.30;89.20;;;;;;5068828;28;20716;-60
2021/12/09 11:40:26;;;;;;;13.25;8.82;;;9.30;89.20;;;;;;5071224;28;20028;-59
2021/12/09 11:43:00;;;;;;;13.20;9.63;;;9.30;89.00;;;;;;5065022;28;20035;-59
2021/12/09 11:45:32;;;;;;;13.88;8.68;;;9.30;89.20;;;;;;5074423;28;20028;-59
2021/12/09 11:48:00;;;;;;;14.48;9.52;;;9.40;89.20;;;;;;5073472;28;20401;-59
2021/12/09 11:50:31;;;;;;;13.38;9.70;;;9.30;89.20;;;;;;5069765;28;20032;-60
2021/12/09 11:53:00;;;;;;;12.95;9.02;;;9.40;89.20;;;;;;5076403;28;20036;-58
2021/12/09 11:55:58;;;;;;;14.00;9.85;;;9.30;89.70;;;;;;5069789;28;20056;-59
2021/12/09 11:58:25;;;;;;;14.77;10.13;;;9.40;89.20;;;;;;5068944;28;20506;-59
2021/12/09 12:07:06;;;;;;;14.27;9.73;;;9.40;89.00;;;;;;5060728;28;20094;-60
2021/12/09 12:15:28;;;;;;;14.73;8.90;;;9.30;89.00;;;;;;5066054;28;20036;-60
2021/12/09 12:20:55;;;;;;;28.75;17.52;;;9.30;89.10;;;;;;5070073;28;20040;-61
2021/12/09 12:23:33;;;;;;;24.58;17.58;;;9.30;89.10;;;;;;5060656;28;20563;-61
2021/12/09 12:26:37;;;;;;;21.17;14.23;;;9.30;89.00;;;;;;5066458;28;20119;-61
2021/12/09 12:40:19;;;;;;;13.15;9.20;;;9.20;88.70;;;;;;5065704;28;19916;-59
2021/12/09 12:43:16;;;;;;;13.00;10.02;;;9.30;88.90;;;;;;5067109;28;20052;-61
2021/12/09 12:48:36;;;;;;;12.63;9.75;;;9.30;88.90;;;;;;5059739;28;20025;-61
2021/12/09 12:53:49;;;;;;;15.02;9.68;;;9.30;89.10;;;;;;5062854;28;20029;-59
2021/12/09 12:56:20;;;;;;;;;;;9.30;89.20;;;;;;5064008;28;20517;-62
2021/12/09 12:59:16;;;;;;;11.85;8.57;;;9.20;88.80;;;;;;5057949;28;20046;-59
2021/12/09 13:02:12;;;;;;;14.82;9.07;;;9.30;89.30;;;;;;5053881;28;20035;-60
2021/12/09 13:19:11;;;;;;;14.05;9.80;;;9.20;89.10;;;;;;5063449;28;20047;-57
2021/12/09 13:21:56;;;;;;;14.70;10.15;;;9.30;89.30;;;;;;5063578;28;20511;-57
2021/12/09 13:24:34;;;;;;;13.13;9.75;;;9.20;89.20;;;;;;5060330;28;20031;-53
2021/12/09 13:27:15;;;;;;;12.90;9.23;;;9.20;89.30;;;;;;5071359;28;20035;-56
2021/12/09 13:35:24;;;;;;;11.10;8.65;;;9.20;89.20;;;;;;5035317;28;20050;-57
2021/12/09 13:48:45;;;;;;;14.73;10.20;;;9.20;89.40;;;;;;5060559;28;20039;-58
2021/12/09 13:51:31;;;;;;;14.40;9.65;;;9.30;89.50;;;;;;5031331;28;20066;-59
2021/12/09 13:54:19;;;;;;;14.05;9.65;;;9.30;89.30;;;;;;5061249;28;20047;-60
2021/12/09 13:56:46;;;;;;;14.68;9.68;;;9.30;89.40;;;;;;5054768;28;20040;-61
2021/12/09 13:59:19;;;;;;;13.88;9.05;;;9.20;89.60;;;;;;5060823;28;20029;-58